sensor_id;sensor_type;location;lat;lon;timestamp;temperature;humidity
23839;DHT22;12100;44.384;20.272;2022-08-01T00:00:33;16.40;99.90
23839;DHT22;12100;44.384;20.272;2022-08-01T00:02:59;16.50;99.90
23839;DHT22;12100;44.384;20.272;2022-08-01T00:05:25;16.50;99.90
23839;DHT22;12100;44.384;20.272;2022-08-01T00:07:51;16.50;99.90
23839;DHT22;12100;44.384;20.272;2022-08-01T00:10:18;16.50;99.90
23839;DHT22;12100;44.384;20.272;2022-08-01T00:12:45;16.50;99.90
23839;DHT22;12100;44.384;20.272;2022-08-01T00:15:13;16.50;99.90
23839;DHT22;12100;44.384;20.272;2022-08-01T00:17:40;16.50;99.90
23839;DHT22;12100;44.384;20.272;2022-08-01T00:20:08;16.60;99.90
23839;DHT22;12100;44.384;20.272;2022-08-01T00:22:35;16.60;99.90
23839;DHT22;12100;44.384;20.272;2022-08-01T00:25:01;16.60;99.90
23839;DHT22;12100;44.384;20.272;2022-08-01T00:27:27;16.60;99.90
23839;DHT22;12100;44.384;20.272;2022-08-01T00:29:52;16.50;99.90
23839;DHT22;12100;44.384;20.272;2022-08-01T00:37:11;16.30;99.90
23839;DHT22;12100;44.384;20.272;2022-08-01T00:39:37;16.00;99.90
23839;DHT22;12100;44.384;20.272;2022-08-01T00:44:33;15.80;99.90
23839;DHT22;12100;44.384;20.272;2022-08-01T00:46:58;15.80;99.90
23839;DHT22;12100;44.384;20.272;2022-08-01T00:49:24;15.70;99.90
23839;DHT22;12100;44.384;20.272;2022-08-01T00:51:50;15.60;99.90
23839;DHT22;12100;44.384;20.272;2022-08-01T00:54:16;15.50;99.90
23839;DHT22;12100;44.384;20.272;2022-08-01T00:56:42;15.50;99.90
23839;DHT22;12100;44.384;20.272;2022-08-01T00:59:09;15.40;99.90
23839;DHT22;12100;44.384;20.272;2022-08-01T01:01:36;15.50;99.90
23839;DHT22;12100;44.384;20.272;2022-08-01T01:04:02;15.50;99.90
23839;DHT22;12100;44.384;20.272;2022-08-01T01:06:41;15.50;99.90
23839;DHT22;12100;44.384;20.272;2022-08-01T01:12:12;15.30;99.90
23839;DHT22;12100;44.384;20.272;2022-08-01T01:17:16;15.60;99.90
23839;DHT22;12100;44.384;20.272;2022-08-01T01:19:47;15.50;99.90
23839;DHT22;12100;44.384;20.272;2022-08-01T01:30:32;15.70;99.90
23839;DHT22;12100;44.384;20.272;2022-08-01T01:33:03;15.70;99.90
23839;DHT22;12100;44.384;20.272;2022-08-01T01:35:34;15.60;99.90
23839;DHT22;12100;44.384;20.272;2022-08-01T01:38:10;15.50;99.90
23839;DHT22;12100;44.384;20.272;2022-08-01T01:40:38;15.40;99.90
23839;DHT22;12100;44.384;20.272;2022-08-01T01:43:08;15.30;99.90
23839;DHT22;12100;44.384;20.272;2022-08-01T01:45:35;15.30;99.90
23839;DHT22;12100;44.384;20.272;2022-08-01T01:48:02;15.20;99.90
23839;DHT22;12100;44.384;20.272;2022-08-01T01:50:29;15.10;99.90
23839;DHT22;12100;44.384;20.272;2022-08-01T01:52:57;15.20;99.90
23839;DHT22;12100;44.384;20.272;2022-08-01T01:55:25;15.10;99.90
23839;DHT22;12100;44.384;20.272;2022-08-01T01:57:51;15.10;99.90
23839;DHT22;12100;44.384;20.272;2022-08-01T02:00:18;15.10;99.90
23839;DHT22;12100;44.384;20.272;2022-08-01T02:02:44;15.10;99.90
23839;DHT22;12100;44.384;20.272;2022-08-01T02:05:12;15.00;99.90
23839;DHT22;12100;44.384;20.272;2022-08-01T02:07:39;14.90;99.90
23839;DHT22;12100;44.384;20.272;2022-08-01T02:10:06;14.90;99.90
23839;DHT22;12100;44.384;20.272;2022-08-01T02:12:36;14.80;99.90
23839;DHT22;12100;44.384;20.272;2022-08-01T02:15:04;14.70;99.90
23839;DHT22;12100;44.384;20.272;2022-08-01T02:17:30;14.70;99.90
23839;DHT22;12100;44.384;20.272;2022-08-01T02:19:57;14.60;99.90
23839;DHT22;12100;44.384;20.272;2022-08-01T02:22:30;14.50;99.90
23839;DHT22;12100;44.384;20.272;2022-08-01T02:25:02;14.50;99.90
23839;DHT22;12100;44.384;20.272;2022-08-01T02:27:34;14.50;99.90
23839;DHT22;12100;44.384;20.272;2022-08-01T02:30:05;14.50;99.90
23839;DHT22;12100;44.384;20.272;2022-08-01T02:32:58;14.50;99.90
23839;DHT22;12100;44.384;20.272;2022-08-01T02:35:32;14.50;99.90
23839;DHT22;12100;44.384;20.272;2022-08-01T02:38:01;14.50;99.90
23839;DHT22;12100;44.384;20.272;2022-08-01T02:40:29;14.60;99.90
23839;DHT22;12100;44.384;20.272;2022-08-01T02:42:56;14.50;99.90
23839;DHT22;12100;44.384;20.272;2022-08-01T02:45:25;14.50;99.90
23839;DHT22;12100;44.384;20.272;2022-08-01T02:47:55;14.40;99.90
23839;DHT22;12100;44.384;20.272;2022-08-01T02:50:23;14.50;99.90
23839;DHT22;12100;44.384;20.272;2022-08-01T02:52:52;14.50;99.90
23839;DHT22;12100;44.384;20.272;2022-08-01T02:55:19;14.50;99.90
23839;DHT22;12100;44.384;20.272;2022-08-01T02:57:46;14.50;99.90
23839;DHT22;12100;44.384;20.272;2022-08-01T03:00:15;14.30;99.90
23839;DHT22;12100;44.384;20.272;2022-08-01T03:02:42;14.30;99.90
23839;DHT22;12100;44.384;20.272;2022-08-01T03:05:11;14.20;99.90
23839;DHT22;12100;44.384;20.272;2022-08-01T03:07:38;14.30;99.90
23839;DHT22;12100;44.384;20.272;2022-08-01T03:10:05;14.30;99.90
23839;DHT22;12100;44.384;20.272;2022-08-01T03:12:33;14.30;99.90
23839;DHT22;12100;44.384;20.272;2022-08-01T03:15:00;14.20;99.90
23839;DHT22;12100;44.384;20.272;2022-08-01T03:17:28;14.20;99.90
23839;DHT22;12100;44.384;20.272;2022-08-01T03:19:57;14.10;99.90
23839;DHT22;12100;44.384;20.272;2022-08-01T03:22:25;14.10;99.90
23839;DHT22;12100;44.384;20.272;2022-08-01T03:24:54;14.10;99.90
23839;DHT22;12100;44.384;20.272;2022-08-01T03:27:23;14.10;99.90
23839;DHT22;12100;44.384;20.272;2022-08-01T03:29:51;14.00;99.90
23839;DHT22;12100;44.384;20.272;2022-08-01T03:32:19;14.10;99.90
23839;DHT22;12100;44.384;20.272;2022-08-01T03:34:45;14.10;99.90
23839;DHT22;12100;44.384;20.272;2022-08-01T03:39:44;14.10;99.90
23839;DHT22;12100;44.384;20.272;2022-08-01T03:42:20;14.20;99.90
23839;DHT22;12100;44.384;20.272;2022-08-01T03:44:59;14.20;99.90
23839;DHT22;12100;44.384;20.272;2022-08-01T03:47:32;14.20;99.90
23839;DHT22;12100;44.384;20.272;2022-08-01T03:50:01;14.20;99.90
23839;DHT22;12100;44.384;20.272;2022-08-01T03:52:28;14.20;99.90
23839;DHT22;12100;44.384;20.272;2022-08-01T03:54:56;14.20;99.90
23839;DHT22;12100;44.384;20.272;2022-08-01T03:57:26;14.30;99.90
23839;DHT22;12100;44.384;20.272;2022-08-01T03:59:54;14.80;99.90
23839;DHT22;12100;44.384;20.272;2022-08-01T04:02:21;15.70;99.90
23839;DHT22;12100;44.384;20.272;2022-08-01T04:04:48;16.50;99.90
23839;DHT22;12100;44.384;20.272;2022-08-01T04:07:29;17.40;99.90
23839;DHT22;12100;44.384;20.272;2022-08-01T04:09:55;18.10;99.90
23839;DHT22;12100;44.384;20.272;2022-08-01T04:12:22;18.80;99.90
23839;DHT22;12100;44.384;20.272;2022-08-01T04:14:48;19.40;96.40
23839;DHT22;12100;44.384;20.272;2022-08-01T04:17:15;19.70;94.10
23839;DHT22;12100;44.384;20.272;2022-08-01T04:19:41;20.30;92.20
23839;DHT22;12100;44.384;20.272;2022-08-01T04:22:13;21.00;89.60
23839;DHT22;12100;44.384;20.272;2022-08-01T04:27:10;22.00;81.00
23839;DHT22;12100;44.384;20.272;2022-08-01T04:29:38;22.50;78.10
23839;DHT22;12100;44.384;20.272;2022-08-01T04:32:07;23.00;75.60
23839;DHT22;12100;44.384;20.272;2022-08-01T04:34:36;23.60;72.80
23839;DHT22;12100;44.384;20.272;2022-08-01T04:37:03;24.00;71.00
23839;DHT22;12100;44.384;20.272;2022-08-01T04:39:31;24.20;69.10
23839;DHT22;12100;44.384;20.272;2022-08-01T04:42:04;24.70;68.20
23839;DHT22;12100;44.384;20.272;2022-08-01T04:44:32;25.30;66.10
23839;DHT22;12100;44.384;20.272;2022-08-01T04:51:54;27.50;59.30
23839;DHT22;12100;44.384;20.272;2022-08-01T04:54:27;27.60;57.90
23839;DHT22;12100;44.384;20.272;2022-08-01T04:56:54;27.80;56.60
23839;DHT22;12100;44.384;20.272;2022-08-01T04:59:26;28.20;55.90
23839;DHT22;12100;44.384;20.272;2022-08-01T05:02:06;28.50;55.10
23839;DHT22;12100;44.384;20.272;2022-08-01T05:04:32;28.70;54.00
23839;DHT22;12100;44.384;20.272;2022-08-01T05:06:59;28.80;53.60
23839;DHT22;12100;44.384;20.272;2022-08-01T05:09:25;29.10;53.40
23839;DHT22;12100;44.384;20.272;2022-08-01T05:21:37;30.40;52.00
23839;DHT22;12100;44.384;20.272;2022-08-01T05:24:04;31.90;49.80
23839;DHT22;12100;44.384;20.272;2022-08-01T05:26:31;32.20;48.70
23839;DHT22;12100;44.384;20.272;2022-08-01T05:31:23;32.60;47.90
23839;DHT22;12100;44.384;20.272;2022-08-01T05:33:48;33.20;45.80
23839;DHT22;12100;44.384;20.272;2022-08-01T05:36:14;32.80;46.40
23839;DHT22;12100;44.384;20.272;2022-08-01T05:38:40;33.40;45.90
23839;DHT22;12100;44.384;20.272;2022-08-01T05:43:32;33.80;45.00
23839;DHT22;12100;44.384;20.272;2022-08-01T05:45:58;33.90;43.20
23839;DHT22;12100;44.384;20.272;2022-08-01T05:48:24;34.10;44.40
23839;DHT22;12100;44.384;20.272;2022-08-01T05:50:51;34.40;42.80
23839;DHT22;12100;44.384;20.272;2022-08-01T06:00:36;35.30;39.70
23839;DHT22;12100;44.384;20.272;2022-08-01T06:03:02;36.70;38.40
23839;DHT22;12100;44.384;20.272;2022-08-01T06:05:27;37.60;36.70
23839;DHT22;12100;44.384;20.272;2022-08-01T06:10:20;37.60;35.90
23839;DHT22;12100;44.384;20.272;2022-08-01T06:12:45;38.30;34.00
23839;DHT22;12100;44.384;20.272;2022-08-01T06:15:12;37.40;35.10
23839;DHT22;12100;44.384;20.272;2022-08-01T06:17:38;36.40;36.80
23839;DHT22;12100;44.384;20.272;2022-08-01T06:20:05;36.50;36.50
23839;DHT22;12100;44.384;20.272;2022-08-01T06:22:33;36.40;36.80
23839;DHT22;12100;44.384;20.272;2022-08-01T06:24:59;35.90;36.90
23839;DHT22;12100;44.384;20.272;2022-08-01T06:27:24;36.00;36.50
23839;DHT22;12100;44.384;20.272;2022-08-01T06:29:51;36.10;36.20
23839;DHT22;12100;44.384;20.272;2022-08-01T06:32:19;37.10;33.80
23839;DHT22;12100;44.384;20.272;2022-08-01T06:34:45;37.40;32.50
23839;DHT22;12100;44.384;20.272;2022-08-01T06:44:31;40.00;31.00
23839;DHT22;12100;44.384;20.272;2022-08-01T06:46:57;40.30;31.50
23839;DHT22;12100;44.384;20.272;2022-08-01T06:49:25;39.30;29.80
23839;DHT22;12100;44.384;20.272;2022-08-01T06:51:52;40.30;30.70
23839;DHT22;12100;44.384;20.272;2022-08-01T06:59:10;39.70;30.60
23839;DHT22;12100;44.384;20.272;2022-08-01T07:01:36;41.40;29.50
23839;DHT22;12100;44.384;20.272;2022-08-01T07:04:02;41.90;28.90
23839;DHT22;12100;44.384;20.272;2022-08-01T07:06:28;40.90;29.00
23839;DHT22;12100;44.384;20.272;2022-08-01T07:08:55;40.70;29.60
23839;DHT22;12100;44.384;20.272;2022-08-01T07:11:24;41.10;29.70
23839;DHT22;12100;44.384;20.272;2022-08-01T07:13:50;39.20;29.70
23839;DHT22;12100;44.384;20.272;2022-08-01T07:16:16;38.80;31.60
23839;DHT22;12100;44.384;20.272;2022-08-01T07:18:43;39.40;29.80
23839;DHT22;12100;44.384;20.272;2022-08-01T07:21:09;39.00;30.50
23839;DHT22;12100;44.384;20.272;2022-08-01T07:23:35;37.50;30.80
23839;DHT22;12100;44.384;20.272;2022-08-01T07:26:02;36.80;32.60
23839;DHT22;12100;44.384;20.272;2022-08-01T07:28:29;36.50;33.80
23839;DHT22;12100;44.384;20.272;2022-08-01T07:30:55;35.50;35.70
23839;DHT22;12100;44.384;20.272;2022-08-01T07:33:21;34.80;36.00
23839;DHT22;12100;44.384;20.272;2022-08-01T07:35:48;34.00;37.70
23839;DHT22;12100;44.384;20.272;2022-08-01T07:52:56;33.20;36.60
23839;DHT22;12100;44.384;20.272;2022-08-01T07:55:22;30.90;40.50
23839;DHT22;12100;44.384;20.272;2022-08-01T07:57:48;31.10;41.50
23839;DHT22;12100;44.384;20.272;2022-08-01T08:00:15;30.70;43.40
23839;DHT22;12100;44.384;20.272;2022-08-01T08:02:41;30.50;43.10
23839;DHT22;12100;44.384;20.272;2022-08-01T08:05:07;30.40;42.90
23839;DHT22;12100;44.384;20.272;2022-08-01T08:07:33;30.70;43.50
23839;DHT22;12100;44.384;20.272;2022-08-01T08:09:59;30.40;42.00
23839;DHT22;12100;44.384;20.272;2022-08-01T08:14:51;30.30;43.10
23839;DHT22;12100;44.384;20.272;2022-08-01T08:17:16;29.10;45.20
23839;DHT22;12100;44.384;20.272;2022-08-01T08:19:42;29.30;43.70
23839;DHT22;12100;44.384;20.272;2022-08-01T08:22:08;29.40;44.20
23839;DHT22;12100;44.384;20.272;2022-08-01T08:24:35;29.30;44.60
23839;DHT22;12100;44.384;20.272;2022-08-01T08:27:02;29.20;43.90
23839;DHT22;12100;44.384;20.272;2022-08-01T08:29:29;29.40;43.90
23839;DHT22;12100;44.384;20.272;2022-08-01T08:31:58;29.60;43.90
23839;DHT22;12100;44.384;20.272;2022-08-01T08:34:25;29.00;43.60
23839;DHT22;12100;44.384;20.272;2022-08-01T08:44:10;28.40;43.60
23839;DHT22;12100;44.384;20.272;2022-08-01T08:46:44;28.50;45.10
23839;DHT22;12100;44.384;20.272;2022-08-01T08:49:12;28.30;45.50
23839;DHT22;12100;44.384;20.272;2022-08-01T08:51:39;29.10;45.60
23839;DHT22;12100;44.384;20.272;2022-08-01T08:54:06;29.50;45.10
23839;DHT22;12100;44.384;20.272;2022-08-01T08:56:34;29.70;44.40
23839;DHT22;12100;44.384;20.272;2022-08-01T08:59:02;29.40;43.70
23839;DHT22;12100;44.384;20.272;2022-08-01T09:01:28;29.30;46.80
23839;DHT22;12100;44.384;20.272;2022-08-01T09:03:54;29.40;44.90
23839;DHT22;12100;44.384;20.272;2022-08-01T09:06:20;29.10;44.00
23839;DHT22;12100;44.384;20.272;2022-08-01T09:08:46;29.60;45.00
23839;DHT22;12100;44.384;20.272;2022-08-01T09:11:12;29.70;45.40
23839;DHT22;12100;44.384;20.272;2022-08-01T09:13:38;29.70;44.30
23839;DHT22;12100;44.384;20.272;2022-08-01T09:16:04;29.20;44.00
23839;DHT22;12100;44.384;20.272;2022-08-01T09:18:36;29.70;45.00
23839;DHT22;12100;44.384;20.272;2022-08-01T09:21:15;29.80;45.10
23839;DHT22;12100;44.384;20.272;2022-08-01T09:23:48;29.90;44.10
23839;DHT22;12100;44.384;20.272;2022-08-01T09:26:19;29.30;43.30
23839;DHT22;12100;44.384;20.272;2022-08-01T09:28:46;29.20;45.40
23839;DHT22;12100;44.384;20.272;2022-08-01T09:31:16;29.30;45.00
23839;DHT22;12100;44.384;20.272;2022-08-01T09:33:58;29.00;44.50
23839;DHT22;12100;44.384;20.272;2022-08-01T09:36:27;29.00;44.30
23839;DHT22;12100;44.384;20.272;2022-08-01T09:39:12;29.30;45.40
23839;DHT22;12100;44.384;20.272;2022-08-01T09:41:39;28.80;45.40
23839;DHT22;12100;44.384;20.272;2022-08-01T09:44:05;28.90;45.40
23839;DHT22;12100;44.384;20.272;2022-08-01T09:46:31;28.60;44.60
23839;DHT22;12100;44.384;20.272;2022-08-01T09:49:04;28.70;46.50
23839;DHT22;12100;44.384;20.272;2022-08-01T09:51:32;29.10;47.10
23839;DHT22;12100;44.384;20.272;2022-08-01T09:53:58;29.00;45.40
23839;DHT22;12100;44.384;20.272;2022-08-01T09:56:24;29.10;45.20
23839;DHT22;12100;44.384;20.272;2022-08-01T09:58:55;29.20;44.10
23839;DHT22;12100;44.384;20.272;2022-08-01T10:01:22;29.30;44.70
23839;DHT22;12100;44.384;20.272;2022-08-01T10:04:08;29.50;44.70
23839;DHT22;12100;44.384;20.272;2022-08-01T10:06:35;29.30;45.10
23839;DHT22;12100;44.384;20.272;2022-08-01T10:09:01;29.30;44.70
23839;DHT22;12100;44.384;20.272;2022-08-01T10:11:28;29.40;45.40
23839;DHT22;12100;44.384;20.272;2022-08-01T10:13:56;29.60;44.30
23839;DHT22;12100;44.384;20.272;2022-08-01T10:16:25;29.50;43.80
23839;DHT22;12100;44.384;20.272;2022-08-01T10:18:52;29.30;43.00
23839;DHT22;12100;44.384;20.272;2022-08-01T10:21:20;29.10;44.20
23839;DHT22;12100;44.384;20.272;2022-08-01T10:23:47;29.20;44.60
23839;DHT22;12100;44.384;20.272;2022-08-01T10:26:14;29.10;43.40
23839;DHT22;12100;44.384;20.272;2022-08-01T10:28:44;29.30;45.10
23839;DHT22;12100;44.384;20.272;2022-08-01T10:31:14;29.40;43.00
23839;DHT22;12100;44.384;20.272;2022-08-01T10:33:40;29.50;43.30
23839;DHT22;12100;44.384;20.272;2022-08-01T10:36:07;29.40;43.50
23839;DHT22;12100;44.384;20.272;2022-08-01T10:38:34;29.20;43.20
23839;DHT22;12100;44.384;20.272;2022-08-01T10:41:02;29.30;43.70
23839;DHT22;12100;44.384;20.272;2022-08-01T10:43:28;29.00;43.60
23839;DHT22;12100;44.384;20.272;2022-08-01T10:45:55;29.40;44.80
23839;DHT22;12100;44.384;20.272;2022-08-01T10:48:47;29.40;43.40
23839;DHT22;12100;44.384;20.272;2022-08-01T10:51:15;29.60;44.50
23839;DHT22;12100;44.384;20.272;2022-08-01T10:53:52;29.50;45.40
23839;DHT22;12100;44.384;20.272;2022-08-01T10:56:19;29.70;43.70
23839;DHT22;12100;44.384;20.272;2022-08-01T10:58:48;29.70;44.20
23839;DHT22;12100;44.384;20.272;2022-08-01T11:01:30;29.40;43.80
23839;DHT22;12100;44.384;20.272;2022-08-01T11:11:31;29.60;45.50
23839;DHT22;12100;44.384;20.272;2022-08-01T11:16:40;29.90;44.40
23839;DHT22;12100;44.384;20.272;2022-08-01T11:19:07;29.90;44.10
23839;DHT22;12100;44.384;20.272;2022-08-01T11:32:48;29.90;43.90
23839;DHT22;12100;44.384;20.272;2022-08-01T11:35:14;30.20;44.10
23839;DHT22;12100;44.384;20.272;2022-08-01T11:37:40;30.20;44.40
23839;DHT22;12100;44.384;20.272;2022-08-01T11:40:16;30.30;43.30
23839;DHT22;12100;44.384;20.272;2022-08-01T11:42:41;30.40;44.00
23839;DHT22;12100;44.384;20.272;2022-08-01T11:45:08;30.50;43.30
23839;DHT22;12100;44.384;20.272;2022-08-01T11:47:44;30.50;43.60
23839;DHT22;12100;44.384;20.272;2022-08-01T11:50:32;30.20;43.60
23839;DHT22;12100;44.384;20.272;2022-08-01T11:53:00;30.40;43.10
23839;DHT22;12100;44.384;20.272;2022-08-01T11:55:28;30.30;43.10
23839;DHT22;12100;44.384;20.272;2022-08-01T11:58:02;30.30;43.20
23839;DHT22;12100;44.384;20.272;2022-08-01T12:00:29;30.20;42.20
23839;DHT22;12100;44.384;20.272;2022-08-01T12:03:00;30.30;43.00
23839;DHT22;12100;44.384;20.272;2022-08-01T12:05:27;30.40;43.00
23839;DHT22;12100;44.384;20.272;2022-08-01T12:07:54;30.50;43.20
23839;DHT22;12100;44.384;20.272;2022-08-01T12:10:23;30.50;43.80
23839;DHT22;12100;44.384;20.272;2022-08-01T12:12:54;30.30;43.80
23839;DHT22;12100;44.384;20.272;2022-08-01T12:15:22;29.90;43.30
23839;DHT22;12100;44.384;20.272;2022-08-01T12:17:57;29.90;43.10
23839;DHT22;12100;44.384;20.272;2022-08-01T12:20:28;30.00;44.10
23839;DHT22;12100;44.384;20.272;2022-08-01T12:22:55;30.00;43.80
23839;DHT22;12100;44.384;20.272;2022-08-01T12:25:22;30.00;43.50
23839;DHT22;12100;44.384;20.272;2022-08-01T12:27:49;30.10;43.30
23839;DHT22;12100;44.384;20.272;2022-08-01T12:30:21;30.20;43.00
23839;DHT22;12100;44.384;20.272;2022-08-01T12:32:54;30.30;42.80
23839;DHT22;12100;44.384;20.272;2022-08-01T12:35:25;30.40;42.50
23839;DHT22;12100;44.384;20.272;2022-08-01T12:38:21;30.50;42.90
23839;DHT22;12100;44.384;20.272;2022-08-01T12:40:52;30.50;43.30
23839;DHT22;12100;44.384;20.272;2022-08-01T12:43:19;30.50;43.10
23839;DHT22;12100;44.384;20.272;2022-08-01T12:45:48;30.60;42.80
23839;DHT22;12100;44.384;20.272;2022-08-01T12:48:16;30.70;42.70
23839;DHT22;12100;44.384;20.272;2022-08-01T12:50:45;30.60;41.80
23839;DHT22;12100;44.384;20.272;2022-08-01T12:53:11;30.50;41.80
23839;DHT22;12100;44.384;20.272;2022-08-01T12:55:50;30.50;41.70
23839;DHT22;12100;44.384;20.272;2022-08-01T12:58:17;30.50;41.30
23839;DHT22;12100;44.384;20.272;2022-08-01T13:00:46;30.30;42.30
23839;DHT22;12100;44.384;20.272;2022-08-01T13:03:19;30.30;41.90
23839;DHT22;12100;44.384;20.272;2022-08-01T13:08:15;30.00;42.30
23839;DHT22;12100;44.384;20.272;2022-08-01T13:10:42;29.90;41.90
23839;DHT22;12100;44.384;20.272;2022-08-01T13:13:09;29.90;42.60
23839;DHT22;12100;44.384;20.272;2022-08-01T13:15:37;29.80;42.60
23839;DHT22;12100;44.384;20.272;2022-08-01T13:20:49;30.00;42.70
23839;DHT22;12100;44.384;20.272;2022-08-01T13:23:19;29.90;42.50
23839;DHT22;12100;44.384;20.272;2022-08-01T13:25:55;30.00;42.70
23839;DHT22;12100;44.384;20.272;2022-08-01T13:28:24;30.00;43.00
23839;DHT22;12100;44.384;20.272;2022-08-01T13:31:08;30.00;43.10
23839;DHT22;12100;44.384;20.272;2022-08-01T13:33:47;30.10;42.10
23839;DHT22;12100;44.384;20.272;2022-08-01T13:36:14;30.30;43.00
23839;DHT22;12100;44.384;20.272;2022-08-01T13:38:41;30.30;42.70
23839;DHT22;12100;44.384;20.272;2022-08-01T13:41:26;30.30;42.80
23839;DHT22;12100;44.384;20.272;2022-08-01T13:43:52;30.00;41.70
23839;DHT22;12100;44.384;20.272;2022-08-01T13:46:18;30.10;42.20
23839;DHT22;12100;44.384;20.272;2022-08-01T13:48:44;30.20;42.90
23839;DHT22;12100;44.384;20.272;2022-08-01T13:51:10;30.20;42.70
23839;DHT22;12100;44.384;20.272;2022-08-01T13:53:36;30.00;42.70
23839;DHT22;12100;44.384;20.272;2022-08-01T13:56:02;30.10;42.90
23839;DHT22;12100;44.384;20.272;2022-08-01T13:58:28;30.00;43.50
23839;DHT22;12100;44.384;20.272;2022-08-01T14:00:55;30.00;43.90
23839;DHT22;12100;44.384;20.272;2022-08-01T14:03:22;30.00;43.50
23839;DHT22;12100;44.384;20.272;2022-08-01T14:05:48;29.90;43.30
23839;DHT22;12100;44.384;20.272;2022-08-01T14:08:14;29.70;44.30
23839;DHT22;12100;44.384;20.272;2022-08-01T14:10:41;29.70;43.70
23839;DHT22;12100;44.384;20.272;2022-08-01T14:13:07;29.90;45.50
23839;DHT22;12100;44.384;20.272;2022-08-01T14:15:33;29.80;44.80
23839;DHT22;12100;44.384;20.272;2022-08-01T14:17:59;29.80;44.30
23839;DHT22;12100;44.384;20.272;2022-08-01T14:20:25;29.80;44.70
23839;DHT22;12100;44.384;20.272;2022-08-01T14:22:51;29.90;44.00
23839;DHT22;12100;44.384;20.272;2022-08-01T14:25:17;29.90;43.20
23839;DHT22;12100;44.384;20.272;2022-08-01T14:27:44;29.90;43.40
23839;DHT22;12100;44.384;20.272;2022-08-01T14:30:11;29.90;44.20
23839;DHT22;12100;44.384;20.272;2022-08-01T14:32:37;29.90;44.10
23839;DHT22;12100;44.384;20.272;2022-08-01T14:35:05;29.80;43.50
23839;DHT22;12100;44.384;20.272;2022-08-01T14:37:32;29.80;44.00
23839;DHT22;12100;44.384;20.272;2022-08-01T14:39:59;29.60;43.90
23839;DHT22;12100;44.384;20.272;2022-08-01T14:42:29;29.70;44.00
23839;DHT22;12100;44.384;20.272;2022-08-01T14:44:55;29.40;43.20
23839;DHT22;12100;44.384;20.272;2022-08-01T14:47:21;29.40;43.00
23839;DHT22;12100;44.384;20.272;2022-08-01T14:49:47;29.50;43.30
23839;DHT22;12100;44.384;20.272;2022-08-01T14:52:13;29.30;43.10
23839;DHT22;12100;44.384;20.272;2022-08-01T14:54:39;29.20;43.60
23839;DHT22;12100;44.384;20.272;2022-08-01T14:57:05;29.10;43.60
23839;DHT22;12100;44.384;20.272;2022-08-01T14:59:31;29.10;43.40
23839;DHT22;12100;44.384;20.272;2022-08-01T15:01:56;29.20;44.40
23839;DHT22;12100;44.384;20.272;2022-08-01T15:04:22;29.20;44.20
23839;DHT22;12100;44.384;20.272;2022-08-01T15:06:48;29.20;43.80
23839;DHT22;12100;44.384;20.272;2022-08-01T16:49:30;29.20;43.90
23839;DHT22;12100;44.384;20.272;2022-08-01T16:51:56;27.70;46.20
23839;DHT22;12100;44.384;20.272;2022-08-01T16:54:22;27.50;46.80
23839;DHT22;12100;44.384;20.272;2022-08-01T18:07:31;27.50;46.70
23839;DHT22;12100;44.384;20.272;2022-08-01T18:12:23;23.90;60.20
23839;DHT22;12100;44.384;20.272;2022-08-01T18:14:49;23.80;61.70
23839;DHT22;12100;44.384;20.272;2022-08-01T18:17:15;23.70;62.70
23839;DHT22;12100;44.384;20.272;2022-08-01T18:24:33;23.60;63.10
23839;DHT22;12100;44.384;20.272;2022-08-01T18:31:53;23.00;63.70
23839;DHT22;12100;44.384;20.272;2022-08-01T18:39:13;23.00;65.40
23839;DHT22;12100;44.384;20.272;2022-08-01T18:41:39;22.70;63.90
23839;DHT22;12100;44.384;20.272;2022-08-01T18:44:06;22.70;64.00
23839;DHT22;12100;44.384;20.272;2022-08-01T18:46:32;22.60;64.30
23839;DHT22;12100;44.384;20.272;2022-08-01T18:48:58;22.60;64.70
23839;DHT22;12100;44.384;20.272;2022-08-01T18:51:24;22.60;64.80
23839;DHT22;12100;44.384;20.272;2022-08-01T18:53:51;22.60;64.50
23839;DHT22;12100;44.384;20.272;2022-08-01T18:56:20;22.50;64.40
23839;DHT22;12100;44.384;20.272;2022-08-01T18:58:46;22.50;63.90
23839;DHT22;12100;44.384;20.272;2022-08-01T19:01:12;22.30;66.90
23839;DHT22;12100;44.384;20.272;2022-08-01T19:03:38;22.20;69.20
23839;DHT22;12100;44.384;20.272;2022-08-01T19:06:05;22.00;71.50
23839;DHT22;12100;44.384;20.272;2022-08-01T19:08:31;22.00;71.20
23839;DHT22;12100;44.384;20.272;2022-08-01T19:10:57;21.90;70.40
23839;DHT22;12100;44.384;20.272;2022-08-01T19:15:53;21.90;69.70
23839;DHT22;12100;44.384;20.272;2022-08-01T19:18:19;21.70;69.70
23839;DHT22;12100;44.384;20.272;2022-08-01T19:20:44;21.70;71.90
23839;DHT22;12100;44.384;20.272;2022-08-01T19:23:11;21.60;71.20
23839;DHT22;12100;44.384;20.272;2022-08-01T19:25:56;21.60;71.10
23839;DHT22;12100;44.384;20.272;2022-08-01T19:30:53;21.40;71.20
23839;DHT22;12100;44.384;20.272;2022-08-01T19:33:20;21.40;71.80
23839;DHT22;12100;44.384;20.272;2022-08-01T19:38:17;21.40;83.80
23839;DHT22;12100;44.384;20.272;2022-08-01T19:40:44;21.40;82.80
23839;DHT22;12100;44.384;20.272;2022-08-01T19:43:10;21.30;84.20
23839;DHT22;12100;44.384;20.272;2022-08-01T19:53:01;21.00;99.90
23839;DHT22;12100;44.384;20.272;2022-08-01T19:55:29;20.70;78.00
23839;DHT22;12100;44.384;20.272;2022-08-01T20:00:23;20.50;76.70
23839;DHT22;12100;44.384;20.272;2022-08-01T20:02:51;20.50;78.60
23839;DHT22;12100;44.384;20.272;2022-08-01T20:05:19;20.50;78.10
23839;DHT22;12100;44.384;20.272;2022-08-01T20:07:48;20.30;79.00
23839;DHT22;12100;44.384;20.272;2022-08-01T20:15:07;20.10;80.30
23839;DHT22;12100;44.384;20.272;2022-08-01T20:17:33;19.90;83.20
23839;DHT22;12100;44.384;20.272;2022-08-01T20:19:59;19.90;83.50
23839;DHT22;12100;44.384;20.272;2022-08-01T20:22:28;19.90;83.50
23839;DHT22;12100;44.384;20.272;2022-08-01T20:24:58;19.90;82.60
23839;DHT22;12100;44.384;20.272;2022-08-01T20:27:26;19.90;83.40
23839;DHT22;12100;44.384;20.272;2022-08-01T20:29:56;19.90;83.20
23839;DHT22;12100;44.384;20.272;2022-08-01T20:32:23;19.90;83.00
23839;DHT22;12100;44.384;20.272;2022-08-01T20:34:51;19.90;83.50
23839;DHT22;12100;44.384;20.272;2022-08-01T20:37:18;19.90;83.80
23839;DHT22;12100;44.384;20.272;2022-08-01T20:39:46;19.90;84.10
23839;DHT22;12100;44.384;20.272;2022-08-01T20:42:12;19.90;84.30
23839;DHT22;12100;44.384;20.272;2022-08-01T20:44:39;19.90;83.80
23839;DHT22;12100;44.384;20.272;2022-08-01T20:47:05;19.90;83.50
23839;DHT22;12100;44.384;20.272;2022-08-01T20:49:32;19.90;83.00